sensor_id;sensor_type;location;lat;lon;timestamp;P1;durP1;ratioP1;P2;durP2;ratioP2
43809;SDS011;29440;48.208;11.162;2022-10-31T00:02:04;5.28;;;2.83;;
43809;SDS011;29440;48.208;11.162;2022-10-31T00:04:29;10.60;;;3.17;;
43809;SDS011;29440;48.208;11.162;2022-10-31T00:06:55;7.55;;;3.03;;
43809;SDS011;29440;48.208;11.162;2022-10-31T00:09:20;10.57;;;3.00;;
43809;SDS011;29440;48.208;11.162;2022-10-31T00:11:46;5.68;;;3.10;;
43809;SDS011;29440;48.208;11.162;2022-10-31T00:14:11;10.48;;;3.80;;
43809;SDS011;29440;48.208;11.162;2022-10-31T00:16:37;11.73;;;4.38;;
43809;SDS011;29440;48.208;11.162;2022-10-31T00:19:03;13.65;;;4.55;;
43809;SDS011;29440;48.208;11.162;2022-10-31T00:21:31;11.45;;;4.18;;
43809;SDS011;29440;48.208;11.162;2022-10-31T00:23:58;10.35;;;3.95;;
43809;SDS011;29440;48.208;11.162;2022-10-31T00:26:24;10.93;;;3.63;;
43809;SDS011;29440;48.208;11.162;2022-10-31T00:28:55;8.93;;;3.10;;
43809;SDS011;29440;48.208;11.162;2022-10-31T00:31:21;9.40;;;3.42;;
43809;SDS011;29440;48.208;11.162;2022-10-31T00:33:47;11.57;;;4.30;;
43809;SDS011;29440;48.208;11.162;2022-10-31T00:36:13;10.77;;;3.28;;
43809;SDS011;29440;48.208;11.162;2022-10-31T00:38:41;6.30;;;2.85;;
43809;SDS011;29440;48.208;11.162;2022-10-31T00:41:07;7.32;;;2.65;;
43809;SDS011;29440;48.208;11.162;2022-10-31T00:43:33;7.22;;;2.95;;
43809;SDS011;29440;48.208;11.162;2022-10-31T00:45:59;6.88;;;3.10;;
43809;SDS011;29440;48.208;11.162;2022-10-31T00:48:24;6.05;;;3.05;;
43809;SDS011;29440;48.208;11.162;2022-10-31T00:50:50;9.20;;;3.10;;
43809;SDS011;29440;48.208;11.162;2022-10-31T00:53:16;8.75;;;2.97;;
43809;SDS011;29440;48.208;11.162;2022-10-31T00:55:41;9.77;;;3.22;;
43809;SDS011;29440;48.208;11.162;2022-10-31T00:58:07;7.80;;;3.67;;
43809;SDS011;29440;48.208;11.162;2022-10-31T01:00:32;5.72;;;3.10;;
43809;SDS011;29440;48.208;11.162;2022-10-31T01:02:58;8.25;;;3.03;;
43809;SDS011;29440;48.208;11.162;2022-10-31T01:05:24;11.82;;;3.10;;
43809;SDS011;29440;48.208;11.162;2022-10-31T01:07:50;7.93;;;2.92;;
43809;SDS011;29440;48.208;11.162;2022-10-31T01:10:15;8.40;;;3.13;;
43809;SDS011;29440;48.208;11.162;2022-10-31T01:12:44;7.22;;;3.05;;
43809;SDS011;29440;48.208;11.162;2022-10-31T01:15:12;7.25;;;2.90;;
43809;SDS011;29440;48.208;11.162;2022-10-31T01:17:39;6.55;;;2.60;;
43809;SDS011;29440;48.208;11.162;2022-10-31T01:20:05;9.48;;;3.22;;
43809;SDS011;29440;48.208;11.162;2022-10-31T01:22:32;5.85;;;2.38;;
43809;SDS011;29440;48.208;11.162;2022-10-31T01:24:58;7.05;;;2.85;;
43809;SDS011;29440;48.208;11.162;2022-10-31T01:27:24;11.68;;;3.25;;
43809;SDS011;29440;48.208;11.162;2022-10-31T01:29:49;6.70;;;2.90;;
43809;SDS011;29440;48.208;11.162;2022-10-31T01:32:15;11.43;;;2.85;;
43809;SDS011;29440;48.208;11.162;2022-10-31T01:34:41;7.18;;;2.55;;
43809;SDS011;29440;48.208;11.162;2022-10-31T01:37:06;7.93;;;3.20;;
43809;SDS011;29440;48.208;11.162;2022-10-31T01:39:32;7.72;;;3.28;;
43809;SDS011;29440;48.208;11.162;2022-10-31T01:41:57;13.65;;;3.83;;
43809;SDS011;29440;48.208;11.162;2022-10-31T01:47:05;9.43;;;3.42;;
43809;SDS011;29440;48.208;11.162;2022-10-31T01:49:46;9.73;;;3.60;;
43809;SDS011;29440;48.208;11.162;2022-10-31T01:52:21;6.43;;;3.38;;
43809;SDS011;29440;48.208;11.162;2022-10-31T01:54:50;8.15;;;2.60;;
43809;SDS011;29440;48.208;11.162;2022-10-31T01:57:20;8.20;;;2.40;;
43809;SDS011;29440;48.208;11.162;2022-10-31T01:59:47;8.48;;;3.38;;
43809;SDS011;29440;48.208;11.162;2022-10-31T02:02:16;7.95;;;2.58;;
43809;SDS011;29440;48.208;11.162;2022-10-31T02:04:43;10.60;;;3.92;;
43809;SDS011;29440;48.208;11.162;2022-10-31T02:07:24;11.13;;;4.25;;
43809;SDS011;29440;48.208;11.162;2022-10-31T02:09:52;13.80;;;3.42;;
43809;SDS011;29440;48.208;11.162;2022-10-31T02:12:20;10.00;;;3.28;;
43809;SDS011;29440;48.208;11.162;2022-10-31T02:14:46;8.65;;;3.00;;
43809;SDS011;29440;48.208;11.162;2022-10-31T02:17:12;8.40;;;2.63;;
43809;SDS011;29440;48.208;11.162;2022-10-31T02:19:59;5.15;;;3.03;;
43809;SDS011;29440;48.208;11.162;2022-10-31T02:28:07;9.00;;;3.00;;
43809;SDS011;29440;48.208;11.162;2022-10-31T02:36:11;7.05;;;3.08;;
43809;SDS011;29440;48.208;11.162;2022-10-31T02:38:58;8.02;;;2.35;;
43809;SDS011;29440;48.208;11.162;2022-10-31T02:52:17;8.37;;;3.53;;
43809;SDS011;29440;48.208;11.162;2022-10-31T02:54:44;7.97;;;2.72;;
43809;SDS011;29440;48.208;11.162;2022-10-31T02:57:11;5.55;;;2.65;;
43809;SDS011;29440;48.208;11.162;2022-10-31T02:59:38;7.20;;;2.85;;
43809;SDS011;29440;48.208;11.162;2022-10-31T03:02:15;8.10;;;2.95;;
43809;SDS011;29440;48.208;11.162;2022-10-31T03:10:56;7.65;;;2.15;;
43809;SDS011;29440;48.208;11.162;2022-10-31T03:18:43;3.85;;;2.25;;
43809;SDS011;29440;48.208;11.162;2022-10-31T03:23:59;6.82;;;2.92;;
43809;SDS011;29440;48.208;11.162;2022-10-31T03:26:26;4.35;;;2.20;;
43809;SDS011;29440;48.208;11.162;2022-10-31T03:28:57;7.47;;;2.92;;
43809;SDS011;29440;48.208;11.162;2022-10-31T03:31:32;5.95;;;2.30;;
43809;SDS011;29440;48.208;11.162;2022-10-31T03:34:01;7.28;;;3.03;;
43809;SDS011;29440;48.208;11.162;2022-10-31T03:36:29;9.50;;;2.90;;
43809;SDS011;29440;48.208;11.162;2022-10-31T03:38:57;7.32;;;2.53;;
43809;SDS011;29440;48.208;11.162;2022-10-31T03:41:27;4.95;;;2.67;;
43809;SDS011;29440;48.208;11.162;2022-10-31T03:44:01;6.78;;;3.35;;
43809;SDS011;29440;48.208;11.162;2022-10-31T03:46:32;8.93;;;2.85;;
43809;SDS011;29440;48.208;11.162;2022-10-31T03:48:59;4.97;;;2.50;;
43809;SDS011;29440;48.208;11.162;2022-10-31T03:51:33;7.10;;;3.00;;
43809;SDS011;29440;48.208;11.162;2022-10-31T03:56:52;5.13;;;2.20;;
43809;SDS011;29440;48.208;11.162;2022-10-31T03:59:30;6.63;;;2.60;;
43809;SDS011;29440;48.208;11.162;2022-10-31T04:04:28;4.22;;;2.35;;
43809;SDS011;29440;48.208;11.162;2022-10-31T04:06:55;7.78;;;2.75;;
43809;SDS011;29440;48.208;11.162;2022-10-31T04:09:22;9.90;;;2.97;;
43809;SDS011;29440;48.208;11.162;2022-10-31T04:11:51;6.15;;;2.42;;
43809;SDS011;29440;48.208;11.162;2022-10-31T04:14:20;6.63;;;2.25;;
43809;SDS011;29440;48.208;11.162;2022-10-31T04:16:49;4.85;;;2.47;;
43809;SDS011;29440;48.208;11.162;2022-10-31T04:19:14;7.78;;;3.05;;
43809;SDS011;29440;48.208;11.162;2022-10-31T04:21:40;13.90;;;3.08;;
43809;SDS011;29440;48.208;11.162;2022-10-31T04:24:08;5.32;;;3.03;;
43809;SDS011;29440;48.208;11.162;2022-10-31T04:26:34;9.35;;;3.47;;
43809;SDS011;29440;48.208;11.162;2022-10-31T04:28:59;8.27;;;3.33;;
43809;SDS011;29440;48.208;11.162;2022-10-31T04:31:25;5.60;;;3.28;;
43809;SDS011;29440;48.208;11.162;2022-10-31T04:33:51;9.32;;;3.35;;
43809;SDS011;29440;48.208;11.162;2022-10-31T04:36:16;7.45;;;2.85;;
43809;SDS011;29440;48.208;11.162;2022-10-31T04:38:42;9.73;;;4.10;;
43809;SDS011;29440;48.208;11.162;2022-10-31T04:41:08;5.88;;;3.65;;
43809;SDS011;29440;48.208;11.162;2022-10-31T04:43:33;9.13;;;2.85;;
43809;SDS011;29440;48.208;11.162;2022-10-31T04:45:59;9.18;;;3.70;;
43809;SDS011;29440;48.208;11.162;2022-10-31T04:48:24;7.57;;;2.90;;
43809;SDS011;29440;48.208;11.162;2022-10-31T04:50:50;8.05;;;3.42;;
43809;SDS011;29440;48.208;11.162;2022-10-31T04:53:15;8.10;;;3.20;;
43809;SDS011;29440;48.208;11.162;2022-10-31T04:55:41;6.38;;;3.40;;
43809;SDS011;29440;48.208;11.162;2022-10-31T04:58:06;7.75;;;3.35;;
43809;SDS011;29440;48.208;11.162;2022-10-31T05:00:32;8.07;;;3.13;;
43809;SDS011;29440;48.208;11.162;2022-10-31T05:02:58;9.50;;;3.63;;
43809;SDS011;29440;48.208;11.162;2022-10-31T05:05:24;5.88;;;2.97;;
43809;SDS011;29440;48.208;11.162;2022-10-31T05:07:52;6.10;;;3.00;;
43809;SDS011;29440;48.208;11.162;2022-10-31T05:10:19;5.97;;;3.10;;
43809;SDS011;29440;48.208;11.162;2022-10-31T05:12:47;6.28;;;3.05;;
43809;SDS011;29440;48.208;11.162;2022-10-31T05:15:14;6.72;;;2.45;;
43809;SDS011;29440;48.208;11.162;2022-10-31T05:17:40;5.35;;;2.55;;
43809;SDS011;29440;48.208;11.162;2022-10-31T05:20:06;5.65;;;3.13;;
43809;SDS011;29440;48.208;11.162;2022-10-31T05:22:32;4.38;;;2.67;;
43809;SDS011;29440;48.208;11.162;2022-10-31T05:24:57;4.88;;;2.53;;
43809;SDS011;29440;48.208;11.162;2022-10-31T05:27:23;4.03;;;2.33;;
43809;SDS011;29440;48.208;11.162;2022-10-31T05:29:48;4.22;;;1.95;;
43809;SDS011;29440;48.208;11.162;2022-10-31T05:32:14;5.60;;;2.65;;
43809;SDS011;29440;48.208;11.162;2022-10-31T05:34:40;7.72;;;2.88;;
43809;SDS011;29440;48.208;11.162;2022-10-31T05:37:06;10.32;;;3.03;;
43809;SDS011;29440;48.208;11.162;2022-10-31T05:39:31;6.07;;;2.45;;
43809;SDS011;29440;48.208;11.162;2022-10-31T05:41:57;5.32;;;2.50;;
43809;SDS011;29440;48.208;11.162;2022-10-31T05:44:22;4.75;;;2.42;;
43809;SDS011;29440;48.208;11.162;2022-10-31T05:46:48;6.05;;;2.53;;
43809;SDS011;29440;48.208;11.162;2022-10-31T05:49:13;9.05;;;3.47;;
43809;SDS011;29440;48.208;11.162;2022-10-31T05:51:39;7.25;;;2.95;;
43809;SDS011;29440;48.208;11.162;2022-10-31T05:54:04;4.85;;;3.10;;
43809;SDS011;29440;48.208;11.162;2022-10-31T05:56:30;7.88;;;3.13;;
43809;SDS011;29440;48.208;11.162;2022-10-31T05:58:56;24.98;;;10.15;;
43809;SDS011;29440;48.208;11.162;2022-10-31T06:01:21;7.97;;;4.03;;
43809;SDS011;29440;48.208;11.162;2022-10-31T06:03:47;8.63;;;4.63;;
43809;SDS011;29440;48.208;11.162;2022-10-31T06:06:12;9.90;;;5.40;;
43809;SDS011;29440;48.208;11.162;2022-10-31T06:08:38;7.30;;;4.18;;
43809;SDS011;29440;48.208;11.162;2022-10-31T06:11:04;8.23;;;3.97;;
43809;SDS011;29440;48.208;11.162;2022-10-31T06:13:29;11.30;;;4.75;;
43809;SDS011;29440;48.208;11.162;2022-10-31T06:15:55;9.65;;;4.32;;
43809;SDS011;29440;48.208;11.162;2022-10-31T06:18:20;14.40;;;7.00;;
43809;SDS011;29440;48.208;11.162;2022-10-31T06:20:46;13.55;;;6.00;;
43809;SDS011;29440;48.208;11.162;2022-10-31T06:23:11;11.98;;;5.15;;
43809;SDS011;29440;48.208;11.162;2022-10-31T06:25:37;12.98;;;5.22;;
43809;SDS011;29440;48.208;11.162;2022-10-31T06:28:03;9.65;;;5.13;;
43809;SDS011;29440;48.208;11.162;2022-10-31T06:30:29;15.45;;;4.90;;
43809;SDS011;29440;48.208;11.162;2022-10-31T06:32:54;11.93;;;5.70;;
43809;SDS011;29440;48.208;11.162;2022-10-31T06:35:25;16.52;;;5.82;;
43809;SDS011;29440;48.208;11.162;2022-10-31T06:37:52;15.75;;;5.75;;
43809;SDS011;29440;48.208;11.162;2022-10-31T06:40:18;9.40;;;4.57;;
43809;SDS011;29440;48.208;11.162;2022-10-31T06:42:44;10.73;;;4.15;;
43809;SDS011;29440;48.208;11.162;2022-10-31T06:45:09;6.90;;;3.83;;
43809;SDS011;29440;48.208;11.162;2022-10-31T06:47:35;8.45;;;3.55;;
43809;SDS011;29440;48.208;11.162;2022-10-31T06:50:01;7.88;;;3.10;;
43809;SDS011;29440;48.208;11.162;2022-10-31T06:52:26;5.65;;;3.00;;
43809;SDS011;29440;48.208;11.162;2022-10-31T06:54:52;11.50;;;4.13;;
43809;SDS011;29440;48.208;11.162;2022-10-31T06:57:17;10.05;;;3.75;;
43809;SDS011;29440;48.208;11.162;2022-10-31T06:59:43;6.05;;;3.25;;
43809;SDS011;29440;48.208;11.162;2022-10-31T07:02:09;7.20;;;4.60;;
43809;SDS011;29440;48.208;11.162;2022-10-31T07:04:35;5.15;;;3.30;;
43809;SDS011;29440;48.208;11.162;2022-10-31T07:07:00;8.68;;;3.35;;
43809;SDS011;29440;48.208;11.162;2022-10-31T07:09:26;7.38;;;3.28;;
43809;SDS011;29440;48.208;11.162;2022-10-31T07:11:52;8.65;;;2.92;;
43809;SDS011;29440;48.208;11.162;2022-10-31T07:14:18;10.82;;;3.40;;
43809;SDS011;29440;48.208;11.162;2022-10-31T07:16:43;12.13;;;3.47;;
43809;SDS011;29440;48.208;11.162;2022-10-31T07:19:12;7.78;;;3.00;;
43809;SDS011;29440;48.208;11.162;2022-10-31T07:21:38;14.48;;;3.63;;
43809;SDS011;29440;48.208;11.162;2022-10-31T07:24:04;7.72;;;3.53;;
43809;SDS011;29440;48.208;11.162;2022-10-31T07:26:29;13.13;;;3.40;;
43809;SDS011;29440;48.208;11.162;2022-10-31T07:28:55;15.75;;;3.50;;
43809;SDS011;29440;48.208;11.162;2022-10-31T07:31:21;11.60;;;3.10;;
43809;SDS011;29440;48.208;11.162;2022-10-31T07:33:46;9.52;;;3.38;;
43809;SDS011;29440;48.208;11.162;2022-10-31T07:36:12;8.18;;;3.00;;
43809;SDS011;29440;48.208;11.162;2022-10-31T07:38:37;8.13;;;2.55;;
43809;SDS011;29440;48.208;11.162;2022-10-31T07:41:03;9.45;;;2.63;;
43809;SDS011;29440;48.208;11.162;2022-10-31T07:43:28;10.55;;;3.20;;
43809;SDS011;29440;48.208;11.162;2022-10-31T07:45:54;11.18;;;2.75;;
43809;SDS011;29440;48.208;11.162;2022-10-31T07:48:20;6.15;;;2.75;;
43809;SDS011;29440;48.208;11.162;2022-10-31T07:50:46;8.38;;;2.40;;
43809;SDS011;29440;48.208;11.162;2022-10-31T07:53:12;9.13;;;2.85;;
43809;SDS011;29440;48.208;11.162;2022-10-31T07:55:39;8.05;;;3.05;;
43809;SDS011;29440;48.208;11.162;2022-10-31T07:58:14;6.85;;;4.03;;
43809;SDS011;29440;48.208;11.162;2022-10-31T08:00:42;7.53;;;3.28;;
43809;SDS011;29440;48.208;11.162;2022-10-31T08:03:10;11.35;;;2.60;;
43809;SDS011;29440;48.208;11.162;2022-10-31T08:05:37;8.80;;;2.45;;
43809;SDS011;29440;48.208;11.162;2022-10-31T08:08:04;9.30;;;3.55;;
43809;SDS011;29440;48.208;11.162;2022-10-31T08:10:31;8.25;;;2.60;;
43809;SDS011;29440;48.208;11.162;2022-10-31T08:13:01;10.98;;;2.30;;
43809;SDS011;29440;48.208;11.162;2022-10-31T08:15:30;7.47;;;2.17;;
43809;SDS011;29440;48.208;11.162;2022-10-31T08:17:56;11.02;;;3.20;;
43809;SDS011;29440;48.208;11.162;2022-10-31T08:20:22;13.85;;;3.15;;
43809;SDS011;29440;48.208;11.162;2022-10-31T08:22:52;10.77;;;3.05;;
43809;SDS011;29440;48.208;11.162;2022-10-31T08:25:22;8.57;;;3.00;;
43809;SDS011;29440;48.208;11.162;2022-10-31T08:27:52;11.77;;;3.25;;
43809;SDS011;29440;48.208;11.162;2022-10-31T08:30:19;7.57;;;2.45;;
43809;SDS011;29440;48.208;11.162;2022-10-31T08:33:05;8.50;;;2.45;;
43809;SDS011;29440;48.208;11.162;2022-10-31T08:35:36;9.43;;;2.20;;
43809;SDS011;29440;48.208;11.162;2022-10-31T08:38:02;8.82;;;2.33;;
43809;SDS011;29440;48.208;11.162;2022-10-31T08:40:29;7.32;;;2.40;;
43809;SDS011;29440;48.208;11.162;2022-10-31T08:42:59;8.50;;;2.88;;
43809;SDS011;29440;48.208;11.162;2022-10-31T08:45:30;5.57;;;2.92;;
43809;SDS011;29440;48.208;11.162;2022-10-31T08:47:57;8.45;;;3.05;;
43809;SDS011;29440;48.208;11.162;2022-10-31T08:50:24;12.13;;;4.00;;
43809;SDS011;29440;48.208;11.162;2022-10-31T08:52:50;12.43;;;3.35;;
43809;SDS011;29440;48.208;11.162;2022-10-31T08:55:16;13.02;;;3.67;;
43809;SDS011;29440;48.208;11.162;2022-10-31T08:57:42;12.15;;;4.53;;
43809;SDS011;29440;48.208;11.162;2022-10-31T09:00:07;9.32;;;4.32;;
43809;SDS011;29440;48.208;11.162;2022-10-31T09:02:33;11.60;;;5.45;;
43809;SDS011;29440;48.208;11.162;2022-10-31T09:04:59;16.13;;;6.07;;
43809;SDS011;29440;48.208;11.162;2022-10-31T09:07:24;13.50;;;5.78;;
43809;SDS011;29440;48.208;11.162;2022-10-31T09:09:50;16.33;;;7.85;;
43809;SDS011;29440;48.208;11.162;2022-10-31T09:12:16;11.93;;;6.40;;
43809;SDS011;29440;48.208;11.162;2022-10-31T09:14:41;14.57;;;7.53;;
43809;SDS011;29440;48.208;11.162;2022-10-31T09:17:07;11.77;;;6.70;;
43809;SDS011;29440;48.208;11.162;2022-10-31T09:19:32;17.75;;;7.78;;
43809;SDS011;29440;48.208;11.162;2022-10-31T09:21:58;15.35;;;8.07;;
43809;SDS011;29440;48.208;11.162;2022-10-31T09:24:23;14.80;;;7.05;;
43809;SDS011;29440;48.208;11.162;2022-10-31T09:26:49;19.90;;;7.47;;
43809;SDS011;29440;48.208;11.162;2022-10-31T09:29:14;13.18;;;7.55;;
43809;SDS011;29440;48.208;11.162;2022-10-31T09:31:40;11.82;;;6.97;;
43809;SDS011;29440;48.208;11.162;2022-10-31T09:34:05;14.60;;;7.93;;
43809;SDS011;29440;48.208;11.162;2022-10-31T09:36:31;19.80;;;7.22;;
43809;SDS011;29440;48.208;11.162;2022-10-31T09:38:57;11.60;;;6.75;;
43809;SDS011;29440;48.208;11.162;2022-10-31T09:52:30;18.15;;;6.93;;
43809;SDS011;29440;48.208;11.162;2022-10-31T09:55:18;12.85;;;7.22;;
43809;SDS011;29440;48.208;11.162;2022-10-31T09:57:55;15.35;;;7.60;;
43809;SDS011;29440;48.208;11.162;2022-10-31T10:00:23;14.80;;;7.07;;
43809;SDS011;29440;48.208;11.162;2022-10-31T10:05:46;16.05;;;7.72;;
43809;SDS011;29440;48.208;11.162;2022-10-31T10:08:20;11.93;;;7.03;;
43809;SDS011;29440;48.208;11.162;2022-10-31T10:24:26;16.73;;;9.55;;
43809;SDS011;29440;48.208;11.162;2022-10-31T10:32:28;19.45;;;8.45;;
43809;SDS011;29440;48.208;11.162;2022-10-31T10:35:02;19.50;;;8.45;;
43809;SDS011;29440;48.208;11.162;2022-10-31T10:37:49;16.70;;;8.18;;
43809;SDS011;29440;48.208;11.162;2022-10-31T10:40:21;15.40;;;7.28;;
43809;SDS011;29440;48.208;11.162;2022-10-31T10:42:59;18.23;;;7.07;;
43809;SDS011;29440;48.208;11.162;2022-10-31T10:45:44;20.77;;;7.00;;
43809;SDS011;29440;48.208;11.162;2022-10-31T10:48:43;17.38;;;7.57;;
43809;SDS011;29440;48.208;11.162;2022-10-31T10:51:19;14.48;;;6.28;;
43809;SDS011;29440;48.208;11.162;2022-10-31T10:54:04;14.27;;;7.25;;
43809;SDS011;29440;48.208;11.162;2022-10-31T11:00:21;16.52;;;7.95;;
43809;SDS011;29440;48.208;11.162;2022-10-31T11:02:57;13.30;;;6.88;;
43809;SDS011;29440;48.208;11.162;2022-10-31T11:08:11;13.93;;;5.32;;
43809;SDS011;29440;48.208;11.162;2022-10-31T11:11:13;14.77;;;6.22;;
43809;SDS011;29440;48.208;11.162;2022-10-31T11:13:43;15.98;;;5.63;;
43809;SDS011;29440;48.208;11.162;2022-10-31T11:16:12;13.23;;;5.63;;
43809;SDS011;29440;48.208;11.162;2022-10-31T11:18:41;11.15;;;5.55;;
43809;SDS011;29440;48.208;11.162;2022-10-31T11:21:26;13.00;;;4.95;;
43809;SDS011;29440;48.208;11.162;2022-10-31T11:26:34;12.73;;;5.00;;
43809;SDS011;29440;48.208;11.162;2022-10-31T11:29:03;10.75;;;4.28;;
43809;SDS011;29440;48.208;11.162;2022-10-31T11:31:30;13.00;;;4.88;;
43809;SDS011;29440;48.208;11.162;2022-10-31T11:34:01;15.05;;;5.85;;
43809;SDS011;29440;48.208;11.162;2022-10-31T11:36:37;12.57;;;5.47;;
43809;SDS011;29440;48.208;11.162;2022-10-31T11:39:04;14.98;;;5.85;;
43809;SDS011;29440;48.208;11.162;2022-10-31T11:41:37;12.00;;;4.97;;
43809;SDS011;29440;48.208;11.162;2022-10-31T11:49:13;14.32;;;5.00;;
43809;SDS011;29440;48.208;11.162;2022-10-31T11:51:47;12.80;;;5.25;;
43809;SDS011;29440;48.208;11.162;2022-10-31T11:54:19;17.55;;;5.53;;
43809;SDS011;29440;48.208;11.162;2022-10-31T11:56:50;16.10;;;4.95;;
43809;SDS011;29440;48.208;11.162;2022-10-31T11:59:26;15.98;;;5.55;;
43809;SDS011;29440;48.208;11.162;2022-10-31T12:01:54;14.18;;;5.80;;
43809;SDS011;29440;48.208;11.162;2022-10-31T12:04:28;16.05;;;5.70;;
43809;SDS011;29440;48.208;11.162;2022-10-31T12:07:02;17.67;;;6.15;;
43809;SDS011;29440;48.208;11.162;2022-10-31T12:09:28;16.88;;;5.45;;
43809;SDS011;29440;48.208;11.162;2022-10-31T12:12:14;22.63;;;6.60;;
43809;SDS011;29440;48.208;11.162;2022-10-31T12:17:33;27.48;;;7.22;;
43809;SDS011;29440;48.208;11.162;2022-10-31T12:23:17;22.23;;;7.10;;
43809;SDS011;29440;48.208;11.162;2022-10-31T12:40:34;14.02;;;6.18;;
43809;SDS011;29440;48.208;11.162;2022-10-31T12:45:57;19.27;;;7.43;;
43809;SDS011;29440;48.208;11.162;2022-10-31T12:48:41;13.68;;;6.88;;
43809;SDS011;29440;48.208;11.162;2022-10-31T12:55:09;12.75;;;6.75;;
43809;SDS011;29440;48.208;11.162;2022-10-31T13:00:09;16.67;;;7.57;;
43809;SDS011;29440;48.208;11.162;2022-10-31T13:02:53;16.27;;;6.40;;
43809;SDS011;29440;48.208;11.162;2022-10-31T13:05:31;15.85;;;7.60;;
43809;SDS011;29440;48.208;11.162;2022-10-31T13:10:43;22.60;;;8.75;;
43809;SDS011;29440;48.208;11.162;2022-10-31T13:13:21;14.70;;;8.15;;
43809;SDS011;29440;48.208;11.162;2022-10-31T13:16:16;14.30;;;8.60;;
43809;SDS011;29440;48.208;11.162;2022-10-31T13:18:49;20.73;;;8.00;;
43809;SDS011;29440;48.208;11.162;2022-10-31T13:21:25;24.17;;;7.70;;
43809;SDS011;29440;48.208;11.162;2022-10-31T13:23:54;20.05;;;8.55;;
43809;SDS011;29440;48.208;11.162;2022-10-31T13:26:37;12.75;;;7.15;;
43809;SDS011;29440;48.208;11.162;2022-10-31T13:29:16;17.02;;;7.45;;
43809;SDS011;29440;48.208;11.162;2022-10-31T13:31:46;16.60;;;6.72;;
43809;SDS011;29440;48.208;11.162;2022-10-31T13:34:17;18.02;;;6.75;;
43809;SDS011;29440;48.208;11.162;2022-10-31T13:37:05;13.73;;;6.43;;
43809;SDS011;29440;48.208;11.162;2022-10-31T13:39:44;13.77;;;6.30;;
43809;SDS011;29440;48.208;11.162;2022-10-31T13:44:55;15.30;;;6.47;;
43809;SDS011;29440;48.208;11.162;2022-10-31T13:47:31;15.60;;;5.68;;
43809;SDS011;29440;48.208;11.162;2022-10-31T13:50:21;23.70;;;6.75;;
43809;SDS011;29440;48.208;11.162;2022-10-31T13:52:50;22.13;;;6.68;;
43809;SDS011;29440;48.208;11.162;2022-10-31T13:55:34;10.75;;;5.63;;
43809;SDS011;29440;48.208;11.162;2022-10-31T13:58:04;12.55;;;5.50;;
43809;SDS011;29440;48.208;11.162;2022-10-31T14:00:44;15.48;;;5.30;;
43809;SDS011;29440;48.208;11.162;2022-10-31T14:03:17;14.10;;;5.03;;
43809;SDS011;29440;48.208;11.162;2022-10-31T14:05:44;12.55;;;4.97;;
43809;SDS011;29440;48.208;11.162;2022-10-31T14:08:18;10.05;;;5.10;;
43809;SDS011;29440;48.208;11.162;2022-10-31T14:10:48;13.20;;;4.80;;
43809;SDS011;29440;48.208;11.162;2022-10-31T14:13:31;14.38;;;4.70;;
43809;SDS011;29440;48.208;11.162;2022-10-31T14:16:06;13.63;;;4.35;;
43809;SDS011;29440;48.208;11.162;2022-10-31T14:18:43;12.10;;;4.65;;
43809;SDS011;29440;48.208;11.162;2022-10-31T14:23:48;14.65;;;4.50;;
43809;SDS011;29440;48.208;11.162;2022-10-31T14:28:51;11.85;;;4.20;;
43809;SDS011;29440;48.208;11.162;2022-10-31T14:31:37;9.15;;;3.65;;
43809;SDS011;29440;48.208;11.162;2022-10-31T14:34:17;12.30;;;3.70;;
43809;SDS011;29440;48.208;11.162;2022-10-31T14:37:03;14.02;;;3.72;;
43809;SDS011;29440;48.208;11.162;2022-10-31T14:40:49;19.50;;;4.95;;
43809;SDS011;29440;48.208;11.162;2022-10-31T14:45:54;14.90;;;4.47;;
43809;SDS011;29440;48.208;11.162;2022-10-31T14:54:33;17.30;;;4.68;;
43809;SDS011;29440;48.208;11.162;2022-10-31T14:57:04;12.40;;;5.10;;
43809;SDS011;29440;48.208;11.162;2022-10-31T14:59:33;11.23;;;4.38;;
43809;SDS011;29440;48.208;11.162;2022-10-31T15:02:12;12.02;;;3.92;;
43809;SDS011;29440;48.208;11.162;2022-10-31T15:04:44;12.90;;;4.05;;
43809;SDS011;29440;48.208;11.162;2022-10-31T15:07:16;12.00;;;4.55;;
43809;SDS011;29440;48.208;11.162;2022-10-31T15:09:45;17.58;;;4.63;;
43809;SDS011;29440;48.208;11.162;2022-10-31T15:12:29;13.30;;;4.75;;
43809;SDS011;29440;48.208;11.162;2022-10-31T15:14:56;12.05;;;4.43;;
43809;SDS011;29440;48.208;11.162;2022-10-31T15:17:29;14.15;;;4.40;;
43809;SDS011;29440;48.208;11.162;2022-10-31T15:19:54;10.32;;;3.38;;
43809;SDS011;29440;48.208;11.162;2022-10-31T15:22:24;15.48;;;4.95;;
43809;SDS011;29440;48.208;11.162;2022-10-31T15:24:52;10.57;;;4.68;;
43809;SDS011;29440;48.208;11.162;2022-10-31T15:27:21;15.43;;;4.80;;
43809;SDS011;29440;48.208;11.162;2022-10-31T15:29:56;9.77;;;4.30;;
43809;SDS011;29440;48.208;11.162;2022-10-31T15:32:26;10.63;;;4.03;;
43809;SDS011;29440;48.208;11.162;2022-10-31T15:34:53;9.02;;;4.40;;
43809;SDS011;29440;48.208;11.162;2022-10-31T15:37:21;15.85;;;5.28;;
43809;SDS011;29440;48.208;11.162;2022-10-31T15:39:50;11.32;;;4.25;;
43809;SDS011;29440;48.208;11.162;2022-10-31T15:45:18;17.30;;;3.88;;
43809;SDS011;29440;48.208;11.162;2022-10-31T15:47:58;10.80;;;4.97;;
43809;SDS011;29440;48.208;11.162;2022-10-31T15:53:20;13.73;;;4.88;;
43809;SDS011;29440;48.208;11.162;2022-10-31T15:56:06;16.17;;;5.38;;
43809;SDS011;29440;48.208;11.162;2022-10-31T15:58:39;10.98;;;4.82;;
43809;SDS011;29440;48.208;11.162;2022-10-31T16:01:20;15.98;;;5.18;;
43809;SDS011;29440;48.208;11.162;2022-10-31T16:03:56;12.90;;;5.43;;
43809;SDS011;29440;48.208;11.162;2022-10-31T16:06:24;12.38;;;4.95;;
43809;SDS011;29440;48.208;11.162;2022-10-31T16:08:51;16.58;;;5.57;;
43809;SDS011;29440;48.208;11.162;2022-10-31T16:16:23;13.45;;;6.18;;
43809;SDS011;29440;48.208;11.162;2022-10-31T16:18:50;12.93;;;5.65;;
43809;SDS011;29440;48.208;11.162;2022-10-31T16:21:24;15.15;;;6.40;;
43809;SDS011;29440;48.208;11.162;2022-10-31T16:26:26;13.75;;;6.38;;
43809;SDS011;29440;48.208;11.162;2022-10-31T16:28:56;13.82;;;6.78;;
43809;SDS011;29440;48.208;11.162;2022-10-31T16:31:27;15.23;;;6.38;;
43809;SDS011;29440;48.208;11.162;2022-10-31T16:36:40;13.35;;;5.85;;
43809;SDS011;29440;48.208;11.162;2022-10-31T16:39:07;14.55;;;5.68;;
43809;SDS011;29440;48.208;11.162;2022-10-31T16:41:48;14.55;;;6.22;;
43809;SDS011;29440;48.208;11.162;2022-10-31T16:49:33;15.52;;;6.38;;
43809;SDS011;29440;48.208;11.162;2022-10-31T16:51:59;18.67;;;6.38;;
43809;SDS011;29440;48.208;11.162;2022-10-31T16:54:24;16.38;;;6.28;;
43809;SDS011;29440;48.208;11.162;2022-10-31T16:56:50;17.30;;;6.15;;
43809;SDS011;29440;48.208;11.162;2022-10-31T16:59:15;19.52;;;9.38;;
43809;SDS011;29440;48.208;11.162;2022-10-31T17:01:41;17.20;;;8.45;;
43809;SDS011;29440;48.208;11.162;2022-10-31T17:04:13;16.33;;;8.48;;
43809;SDS011;29440;48.208;11.162;2022-10-31T17:06:39;12.30;;;8.35;;
43809;SDS011;29440;48.208;11.162;2022-10-31T17:09:05;18.77;;;8.85;;
43809;SDS011;29440;48.208;11.162;2022-10-31T17:11:31;16.13;;;8.48;;
43809;SDS011;29440;48.208;11.162;2022-10-31T17:13:57;14.13;;;7.78;;
43809;SDS011;29440;48.208;11.162;2022-10-31T17:16:23;24.50;;;8.32;;
43809;SDS011;29440;48.208;11.162;2022-10-31T17:18:48;12.38;;;7.93;;
43809;SDS011;29440;48.208;11.162;2022-10-31T17:21:17;11.32;;;6.45;;
43809;SDS011;29440;48.208;11.162;2022-10-31T17:23:46;15.93;;;5.80;;